sensor_id;sensor_type;location;lat;lon;timestamp;temperature;humidity
15937;DHT22;9163;48.818;8.976;2023-10-09T00:01:43;13.90;1.00
15937;DHT22;9163;48.818;8.976;2023-10-09T00:04:12;13.80;1.00
15937;DHT22;9163;48.818;8.976;2023-10-09T00:06:42;13.80;1.00
15937;DHT22;9163;48.818;8.976;2023-10-09T00:09:10;13.70;1.00
15937;DHT22;9163;48.818;8.976;2023-10-09T00:11:44;13.70;1.00
15937;DHT22;9163;48.818;8.976;2023-10-09T00:14:14;13.60;1.00
15937;DHT22;9163;48.818;8.976;2023-10-09T00:16:44;13.50;1.00
15937;DHT22;9163;48.818;8.976;2023-10-09T00:19:15;13.50;1.00
15937;DHT22;9163;48.818;8.976;2023-10-09T00:21:47;13.40;1.00
15937;DHT22;9163;48.818;8.976;2023-10-09T00:24:16;13.40;1.00
15937;DHT22;9163;48.818;8.976;2023-10-09T00:26:49;13.40;1.00
15937;DHT22;9163;48.818;8.976;2023-10-09T00:29:17;13.30;1.00
15937;DHT22;9163;48.818;8.976;2023-10-09T00:31:51;13.30;1.00
15937;DHT22;9163;48.818;8.976;2023-10-09T00:34:22;13.40;1.00
15937;DHT22;9163;48.818;8.976;2023-10-09T00:36:52;13.40;1.00
15937;DHT22;9163;48.818;8.976;2023-10-09T00:39:21;13.40;1.00
15937;DHT22;9163;48.818;8.976;2023-10-09T00:42:09;13.30;1.00
15937;DHT22;9163;48.818;8.976;2023-10-09T00:44:40;13.30;1.00
15937;DHT22;9163;48.818;8.976;2023-10-09T00:47:09;13.30;1.00
15937;DHT22;9163;48.818;8.976;2023-10-09T00:49:50;13.30;1.00
15937;DHT22;9163;48.818;8.976;2023-10-09T00:52:23;13.30;1.00
15937;DHT22;9163;48.818;8.976;2023-10-09T00:54:59;13.40;1.00
15937;DHT22;9163;48.818;8.976;2023-10-09T00:57:34;13.40;1.00
15937;DHT22;9163;48.818;8.976;2023-10-09T01:00:04;13.50;1.00
15937;DHT22;9163;48.818;8.976;2023-10-09T01:02:39;13.50;1.00
15937;DHT22;9163;48.818;8.976;2023-10-09T01:05:10;13.40;1.00
15937;DHT22;9163;48.818;8.976;2023-10-09T01:07:46;13.50;1.00
15937;DHT22;9163;48.818;8.976;2023-10-09T01:10:16;13.50;1.00
15937;DHT22;9163;48.818;8.976;2023-10-09T01:12:45;13.40;1.00
15937;DHT22;9163;48.818;8.976;2023-10-09T01:15:20;13.40;1.00
15937;DHT22;9163;48.818;8.976;2023-10-09T01:18:02;13.40;1.00
15937;DHT22;9163;48.818;8.976;2023-10-09T01:20:33;13.40;1.00
15937;DHT22;9163;48.818;8.976;2023-10-09T01:23:11;13.50;1.00
15937;DHT22;9163;48.818;8.976;2023-10-09T01:25:39;13.50;1.00
15937;DHT22;9163;48.818;8.976;2023-10-09T01:28:11;13.60;1.00
15937;DHT22;9163;48.818;8.976;2023-10-09T01:30:42;13.50;1.00
15937;DHT22;9163;48.818;8.976;2023-10-09T01:33:10;13.40;1.00
15937;DHT22;9163;48.818;8.976;2023-10-09T01:35:52;13.40;1.00
15937;DHT22;9163;48.818;8.976;2023-10-09T01:38:26;13.40;1.00
15937;DHT22;9163;48.818;8.976;2023-10-09T01:41:10;13.50;1.00
15937;DHT22;9163;48.818;8.976;2023-10-09T01:43:42;13.50;1.00
15937;DHT22;9163;48.818;8.976;2023-10-09T01:46:11;13.50;1.00
15937;DHT22;9163;48.818;8.976;2023-10-09T01:48:42;13.50;1.00
15937;DHT22;9163;48.818;8.976;2023-10-09T01:51:15;13.50;1.00
15937;DHT22;9163;48.818;8.976;2023-10-09T01:53:45;13.50;1.00
15937;DHT22;9163;48.818;8.976;2023-10-09T01:56:13;13.50;1.00
15937;DHT22;9163;48.818;8.976;2023-10-09T01:58:42;13.40;1.00
15937;DHT22;9163;48.818;8.976;2023-10-09T02:01:13;13.50;1.00
15937;DHT22;9163;48.818;8.976;2023-10-09T02:03:41;13.50;1.00
15937;DHT22;9163;48.818;8.976;2023-10-09T02:06:09;13.60;1.00
15937;DHT22;9163;48.818;8.976;2023-10-09T02:08:54;13.60;1.00
15937;DHT22;9163;48.818;8.976;2023-10-09T02:11:22;13.60;1.00
15937;DHT22;9163;48.818;8.976;2023-10-09T02:14:04;13.60;1.00
15937;DHT22;9163;48.818;8.976;2023-10-09T02:16:46;13.60;1.00
15937;DHT22;9163;48.818;8.976;2023-10-09T02:19:29;13.60;1.00
15937;DHT22;9163;48.818;8.976;2023-10-09T02:21:57;13.80;1.00
15937;DHT22;9163;48.818;8.976;2023-10-09T02:24:28;13.70;1.00
15937;DHT22;9163;48.818;8.976;2023-10-09T02:27:09;13.80;1.00
15937;DHT22;9163;48.818;8.976;2023-10-09T02:29:38;13.70;1.00
15937;DHT22;9163;48.818;8.976;2023-10-09T02:32:04;13.70;1.00
15937;DHT22;9163;48.818;8.976;2023-10-09T02:34:42;13.70;1.00
15937;DHT22;9163;48.818;8.976;2023-10-09T02:37:12;13.80;1.00
15937;DHT22;9163;48.818;8.976;2023-10-09T02:39:41;13.70;1.00
15937;DHT22;9163;48.818;8.976;2023-10-09T02:42:13;13.70;1.00
15937;DHT22;9163;48.818;8.976;2023-10-09T02:44:49;13.80;1.00
15937;DHT22;9163;48.818;8.976;2023-10-09T02:47:18;13.80;1.00
15937;DHT22;9163;48.818;8.976;2023-10-09T02:49:51;13.70;1.00
15937;DHT22;9163;48.818;8.976;2023-10-09T02:52:18;13.70;1.00
15937;DHT22;9163;48.818;8.976;2023-10-09T02:54:52;13.60;1.00
15937;DHT22;9163;48.818;8.976;2023-10-09T02:57:27;13.70;1.00
15937;DHT22;9163;48.818;8.976;2023-10-09T03:00:03;13.70;1.00
15937;DHT22;9163;48.818;8.976;2023-10-09T03:02:34;13.80;1.00
15937;DHT22;9163;48.818;8.976;2023-10-09T03:05:06;13.70;1.00
15937;DHT22;9163;48.818;8.976;2023-10-09T03:07:38;13.70;1.00
15937;DHT22;9163;48.818;8.976;2023-10-09T03:10:08;13.70;1.00
15937;DHT22;9163;48.818;8.976;2023-10-09T03:12:36;13.60;1.00
15937;DHT22;9163;48.818;8.976;2023-10-09T03:15:06;13.60;1.00
15937;DHT22;9163;48.818;8.976;2023-10-09T03:17:34;13.60;1.00
15937;DHT22;9163;48.818;8.976;2023-10-09T03:20:06;13.60;1.00
15937;DHT22;9163;48.818;8.976;2023-10-09T03:22:38;13.70;1.00
15937;DHT22;9163;48.818;8.976;2023-10-09T03:25:08;13.70;1.00
15937;DHT22;9163;48.818;8.976;2023-10-09T03:27:38;13.60;1.00
15937;DHT22;9163;48.818;8.976;2023-10-09T03:30:09;13.70;1.00
15937;DHT22;9163;48.818;8.976;2023-10-09T03:32:43;13.70;1.00
15937;DHT22;9163;48.818;8.976;2023-10-09T03:35:10;13.80;1.00
15937;DHT22;9163;48.818;8.976;2023-10-09T03:37:51;13.80;1.00
15937;DHT22;9163;48.818;8.976;2023-10-09T03:40:24;13.80;1.00
15937;DHT22;9163;48.818;8.976;2023-10-09T03:42:51;13.70;1.00
15937;DHT22;9163;48.818;8.976;2023-10-09T03:45:19;13.70;1.00
15937;DHT22;9163;48.818;8.976;2023-10-09T03:47:53;13.60;1.00
15937;DHT22;9163;48.818;8.976;2023-10-09T03:50:28;13.60;1.00
15937;DHT22;9163;48.818;8.976;2023-10-09T03:53:04;13.60;1.00
15937;DHT22;9163;48.818;8.976;2023-10-09T03:55:36;13.50;1.00
15937;DHT22;9163;48.818;8.976;2023-10-09T03:58:05;13.50;1.00
15937;DHT22;9163;48.818;8.976;2023-10-09T04:00:33;13.50;1.00
15937;DHT22;9163;48.818;8.976;2023-10-09T04:03:11;13.40;1.00
15937;DHT22;9163;48.818;8.976;2023-10-09T04:05:40;13.40;1.00
15937;DHT22;9163;48.818;8.976;2023-10-09T04:08:09;13.40;1.00
15937;DHT22;9163;48.818;8.976;2023-10-09T04:10:56;13.40;1.00
15937;DHT22;9163;48.818;8.976;2023-10-09T04:13:31;13.30;1.00
15937;DHT22;9163;48.818;8.976;2023-10-09T04:16:02;13.30;1.00
15937;DHT22;9163;48.818;8.976;2023-10-09T04:18:35;13.30;1.00
15937;DHT22;9163;48.818;8.976;2023-10-09T04:21:05;13.40;1.00
15937;DHT22;9163;48.818;8.976;2023-10-09T04:23:45;13.40;1.00
15937;DHT22;9163;48.818;8.976;2023-10-09T04:26:33;13.30;1.00
15937;DHT22;9163;48.818;8.976;2023-10-09T04:29:03;13.30;1.00
15937;DHT22;9163;48.818;8.976;2023-10-09T04:31:32;13.30;1.00
15937;DHT22;9163;48.818;8.976;2023-10-09T04:34:03;13.30;1.00
15937;DHT22;9163;48.818;8.976;2023-10-09T04:36:44;13.20;1.00
15937;DHT22;9163;48.818;8.976;2023-10-09T04:39:15;13.20;1.00
15937;DHT22;9163;48.818;8.976;2023-10-09T04:42:04;13.20;1.00
15937;DHT22;9163;48.818;8.976;2023-10-09T04:45:05;13.10;1.00
15937;DHT22;9163;48.818;8.976;2023-10-09T04:48:01;13.10;1.00
15937;DHT22;9163;48.818;8.976;2023-10-09T04:50:34;13.20;1.00
15937;DHT22;9163;48.818;8.976;2023-10-09T04:53:31;13.10;1.00
15937;DHT22;9163;48.818;8.976;2023-10-09T04:56:05;13.20;1.00
15937;DHT22;9163;48.818;8.976;2023-10-09T04:58:42;13.10;1.00
15937;DHT22;9163;48.818;8.976;2023-10-09T05:01:12;13.10;1.00
15937;DHT22;9163;48.818;8.976;2023-10-09T05:03:41;13.10;1.00
15937;DHT22;9163;48.818;8.976;2023-10-09T05:06:12;13.10;1.00
15937;DHT22;9163;48.818;8.976;2023-10-09T05:09:10;13.10;1.00
15937;DHT22;9163;48.818;8.976;2023-10-09T05:11:40;13.20;1.00
15937;DHT22;9163;48.818;8.976;2023-10-09T05:14:26;13.20;1.00
15937;DHT22;9163;48.818;8.976;2023-10-09T05:17:06;13.20;1.00
15937;DHT22;9163;48.818;8.976;2023-10-09T05:19:32;13.10;1.00
15937;DHT22;9163;48.818;8.976;2023-10-09T05:22:21;13.20;1.00
15937;DHT22;9163;48.818;8.976;2023-10-09T05:25:02;13.20;1.00
15937;DHT22;9163;48.818;8.976;2023-10-09T05:27:41;13.20;1.00
15937;DHT22;9163;48.818;8.976;2023-10-09T05:30:18;13.30;1.00
15937;DHT22;9163;48.818;8.976;2023-10-09T05:32:59;13.30;1.00
15937;DHT22;9163;48.818;8.976;2023-10-09T05:35:34;13.30;1.00
15937;DHT22;9163;48.818;8.976;2023-10-09T05:38:08;13.30;1.00
15937;DHT22;9163;48.818;8.976;2023-10-09T05:40:49;13.30;1.00
15937;DHT22;9163;48.818;8.976;2023-10-09T05:43:21;13.30;1.00
15937;DHT22;9163;48.818;8.976;2023-10-09T05:46:03;13.30;1.00
15937;DHT22;9163;48.818;8.976;2023-10-09T05:48:41;13.30;1.00
15937;DHT22;9163;48.818;8.976;2023-10-09T05:51:21;13.50;1.00
15937;DHT22;9163;48.818;8.976;2023-10-09T05:54:14;13.60;1.00
15937;DHT22;9163;48.818;8.976;2023-10-09T05:57:10;13.70;1.00
15937;DHT22;9163;48.818;8.976;2023-10-09T05:59:55;13.70;1.00
15937;DHT22;9163;48.818;8.976;2023-10-09T06:02:41;13.70;1.00
15937;DHT22;9163;48.818;8.976;2023-10-09T06:05:26;13.70;1.00
15937;DHT22;9163;48.818;8.976;2023-10-09T06:08:18;13.70;1.00
15937;DHT22;9163;48.818;8.976;2023-10-09T06:10:51;13.70;1.00
15937;DHT22;9163;48.818;8.976;2023-10-09T06:13:31;13.70;1.00
15937;DHT22;9163;48.818;8.976;2023-10-09T06:16:11;13.80;1.00
15937;DHT22;9163;48.818;8.976;2023-10-09T06:18:59;13.90;1.00
15937;DHT22;9163;48.818;8.976;2023-10-09T06:21:38;13.90;1.00
15937;DHT22;9163;48.818;8.976;2023-10-09T06:24:23;13.90;1.00
15937;DHT22;9163;48.818;8.976;2023-10-09T06:26:52;14.00;1.00
15937;DHT22;9163;48.818;8.976;2023-10-09T06:29:23;14.10;1.00
15937;DHT22;9163;48.818;8.976;2023-10-09T06:32:01;14.10;1.00
15937;DHT22;9163;48.818;8.976;2023-10-09T06:34:44;14.00;1.00
15937;DHT22;9163;48.818;8.976;2023-10-09T06:37:12;14.10;1.00
15937;DHT22;9163;48.818;8.976;2023-10-09T06:40:00;14.10;1.00
15937;DHT22;9163;48.818;8.976;2023-10-09T06:42:57;14.10;1.00
15937;DHT22;9163;48.818;8.976;2023-10-09T06:45:24;14.10;1.00
15937;DHT22;9163;48.818;8.976;2023-10-09T06:48:09;14.10;1.00
15937;DHT22;9163;48.818;8.976;2023-10-09T06:50:57;14.20;1.00
15937;DHT22;9163;48.818;8.976;2023-10-09T06:53:30;14.20;1.00
15937;DHT22;9163;48.818;8.976;2023-10-09T06:56:11;14.20;1.00
15937;DHT22;9163;48.818;8.976;2023-10-09T06:58:49;14.30;1.00
15937;DHT22;9163;48.818;8.976;2023-10-09T07:01:15;14.30;1.00
15937;DHT22;9163;48.818;8.976;2023-10-09T07:04:05;14.40;1.00
15937;DHT22;9163;48.818;8.976;2023-10-09T07:06:46;14.40;1.00
15937;DHT22;9163;48.818;8.976;2023-10-09T07:09:17;14.50;1.00
15937;DHT22;9163;48.818;8.976;2023-10-09T07:11:46;14.50;1.00
15937;DHT22;9163;48.818;8.976;2023-10-09T07:14:35;14.50;1.00
15937;DHT22;9163;48.818;8.976;2023-10-09T07:17:20;14.70;1.00
15937;DHT22;9163;48.818;8.976;2023-10-09T07:19:53;14.80;1.00
15937;DHT22;9163;48.818;8.976;2023-10-09T07:22:42;14.90;1.00
15937;DHT22;9163;48.818;8.976;2023-10-09T07:25:40;15.00;1.00
15937;DHT22;9163;48.818;8.976;2023-10-09T07:28:22;15.10;1.00
15937;DHT22;9163;48.818;8.976;2023-10-09T07:31:16;15.20;1.00
15937;DHT22;9163;48.818;8.976;2023-10-09T07:33:51;15.20;1.00
15937;DHT22;9163;48.818;8.976;2023-10-09T07:36:23;15.30;1.00
15937;DHT22;9163;48.818;8.976;2023-10-09T07:39:05;15.40;1.00
15937;DHT22;9163;48.818;8.976;2023-10-09T07:41:42;15.50;1.00
15937;DHT22;9163;48.818;8.976;2023-10-09T07:44:27;15.50;1.00
15937;DHT22;9163;48.818;8.976;2023-10-09T07:47:04;15.60;1.00
15937;DHT22;9163;48.818;8.976;2023-10-09T07:49:55;15.70;1.00
15937;DHT22;9163;48.818;8.976;2023-10-09T07:52:25;15.90;1.00
15937;DHT22;9163;48.818;8.976;2023-10-09T07:54:54;16.00;1.00
15937;DHT22;9163;48.818;8.976;2023-10-09T07:57:28;16.10;1.00
15937;DHT22;9163;48.818;8.976;2023-10-09T08:00:05;16.20;1.00
15937;DHT22;9163;48.818;8.976;2023-10-09T08:02:46;16.40;1.00
15937;DHT22;9163;48.818;8.976;2023-10-09T08:05:14;16.50;1.00
15937;DHT22;9163;48.818;8.976;2023-10-09T08:07:46;16.60;1.00
15937;DHT22;9163;48.818;8.976;2023-10-09T08:10:25;16.70;1.00
15937;DHT22;9163;48.818;8.976;2023-10-09T08:13:24;16.80;1.00
15937;DHT22;9163;48.818;8.976;2023-10-09T08:16:09;17.00;1.00
15937;DHT22;9163;48.818;8.976;2023-10-09T08:18:43;17.10;1.00
15937;DHT22;9163;48.818;8.976;2023-10-09T08:21:10;17.20;1.00
15937;DHT22;9163;48.818;8.976;2023-10-09T08:24:07;17.30;1.00
15937;DHT22;9163;48.818;8.976;2023-10-09T08:26:54;17.30;1.00
15937;DHT22;9163;48.818;8.976;2023-10-09T08:29:44;17.30;1.00
15937;DHT22;9163;48.818;8.976;2023-10-09T08:32:13;17.40;1.00
15937;DHT22;9163;48.818;8.976;2023-10-09T08:35:05;17.40;1.00
15937;DHT22;9163;48.818;8.976;2023-10-09T08:37:45;17.40;1.00
15937;DHT22;9163;48.818;8.976;2023-10-09T08:40:15;17.50;1.00
15937;DHT22;9163;48.818;8.976;2023-10-09T08:42:52;17.40;1.00
15937;DHT22;9163;48.818;8.976;2023-10-09T08:45:22;17.40;1.00
15937;DHT22;9163;48.818;8.976;2023-10-09T08:47:53;17.30;1.00
15937;DHT22;9163;48.818;8.976;2023-10-09T08:50:22;17.30;1.00
15937;DHT22;9163;48.818;8.976;2023-10-09T08:52:54;17.50;1.00
15937;DHT22;9163;48.818;8.976;2023-10-09T08:55:22;17.70;1.00
15937;DHT22;9163;48.818;8.976;2023-10-09T08:57:50;17.70;1.00
15937;DHT22;9163;48.818;8.976;2023-10-09T09:00:19;17.80;1.00
15937;DHT22;9163;48.818;8.976;2023-10-09T09:02:50;17.90;1.00
15937;DHT22;9163;48.818;8.976;2023-10-09T09:05:19;17.90;1.00
15937;DHT22;9163;48.818;8.976;2023-10-09T09:07:47;18.00;1.00
15937;DHT22;9163;48.818;8.976;2023-10-09T09:10:15;18.00;1.00
15937;DHT22;9163;48.818;8.976;2023-10-09T09:12:47;18.20;1.00
15937;DHT22;9163;48.818;8.976;2023-10-09T09:15:51;18.30;1.00
15937;DHT22;9163;48.818;8.976;2023-10-09T09:18:21;18.50;1.00
15937;DHT22;9163;48.818;8.976;2023-10-09T09:20:49;18.60;1.00
15937;DHT22;9163;48.818;8.976;2023-10-09T09:23:19;18.70;1.00
15937;DHT22;9163;48.818;8.976;2023-10-09T09:29:02;18.90;1.00
15937;DHT22;9163;48.818;8.976;2023-10-09T09:31:33;18.90;1.00
15937;DHT22;9163;48.818;8.976;2023-10-09T09:34:05;19.10;1.00
15937;DHT22;9163;48.818;8.976;2023-10-09T09:36:50;19.20;1.00
15937;DHT22;9163;48.818;8.976;2023-10-09T09:39:24;19.40;1.00
15937;DHT22;9163;48.818;8.976;2023-10-09T09:41:56;19.60;1.00
15937;DHT22;9163;48.818;8.976;2023-10-09T09:44:33;19.90;1.00
15937;DHT22;9163;48.818;8.976;2023-10-09T09:47:12;20.10;1.00
15937;DHT22;9163;48.818;8.976;2023-10-09T09:49:50;20.50;1.00
15937;DHT22;9163;48.818;8.976;2023-10-09T09:52:28;20.70;1.00
15937;DHT22;9163;48.818;8.976;2023-10-09T09:54:55;21.10;1.00
15937;DHT22;9163;48.818;8.976;2023-10-09T09:57:24;21.30;1.00
15937;DHT22;9163;48.818;8.976;2023-10-09T09:59:56;21.50;1.00
15937;DHT22;9163;48.818;8.976;2023-10-09T10:02:32;21.70;1.00
15937;DHT22;9163;48.818;8.976;2023-10-09T10:05:05;21.80;1.00
15937;DHT22;9163;48.818;8.976;2023-10-09T10:07:38;22.00;99.90
15937;DHT22;9163;48.818;8.976;2023-10-09T10:10:34;22.30;99.90
15937;DHT22;9163;48.818;8.976;2023-10-09T10:13:03;22.60;99.90
15937;DHT22;9163;48.818;8.976;2023-10-09T10:15:59;22.70;99.90
15937;DHT22;9163;48.818;8.976;2023-10-09T10:18:33;22.60;99.90
15937;DHT22;9163;48.818;8.976;2023-10-09T10:21:11;23.10;99.90
15937;DHT22;9163;48.818;8.976;2023-10-09T10:23:43;23.40;99.90
15937;DHT22;9163;48.818;8.976;2023-10-09T10:26:20;23.50;42.80
15937;DHT22;9163;48.818;8.976;2023-10-09T10:29:15;23.30;1.00
15937;DHT22;9163;48.818;8.976;2023-10-09T10:31:56;23.30;1.00
15937;DHT22;9163;48.818;8.976;2023-10-09T10:34:25;23.20;1.00
15937;DHT22;9163;48.818;8.976;2023-10-09T10:36:53;23.40;1.00
15937;DHT22;9163;48.818;8.976;2023-10-09T10:39:26;23.40;1.00
15937;DHT22;9163;48.818;8.976;2023-10-09T10:42:14;23.50;1.00
15937;DHT22;9163;48.818;8.976;2023-10-09T10:44:59;23.60;1.00
15937;DHT22;9163;48.818;8.976;2023-10-09T10:47:28;23.70;1.00
15937;DHT22;9163;48.818;8.976;2023-10-09T10:50:02;23.50;1.00
15937;DHT22;9163;48.818;8.976;2023-10-09T10:53:08;23.00;99.90
15937;DHT22;9163;48.818;8.976;2023-10-09T10:55:39;23.10;99.90
15937;DHT22;9163;48.818;8.976;2023-10-09T10:58:15;23.30;99.90
15937;DHT22;9163;48.818;8.976;2023-10-09T11:00:55;23.20;49.80
15937;DHT22;9163;48.818;8.976;2023-10-09T11:03:41;23.30;1.00
15937;DHT22;9163;48.818;8.976;2023-10-09T11:06:27;23.50;21.60
15937;DHT22;9163;48.818;8.976;2023-10-09T11:09:04;23.70;18.50
15937;DHT22;9163;48.818;8.976;2023-10-09T11:11:48;23.90;1.00
15937;DHT22;9163;48.818;8.976;2023-10-09T11:14:16;24.40;18.50
15937;DHT22;9163;48.818;8.976;2023-10-09T11:16:49;24.70;1.00
15937;DHT22;9163;48.818;8.976;2023-10-09T11:19:24;24.70;99.90
15937;DHT22;9163;48.818;8.976;2023-10-09T11:22:00;24.50;99.90
15937;DHT22;9163;48.818;8.976;2023-10-09T11:24:48;24.20;93.90
15937;DHT22;9163;48.818;8.976;2023-10-09T11:27:27;24.00;1.00
15937;DHT22;9163;48.818;8.976;2023-10-09T11:30:00;23.80;1.00
15937;DHT22;9163;48.818;8.976;2023-10-09T11:32:51;23.80;1.00
15937;DHT22;9163;48.818;8.976;2023-10-09T11:35:28;23.60;1.00
15937;DHT22;9163;48.818;8.976;2023-10-09T11:38:02;23.40;1.00
15937;DHT22;9163;48.818;8.976;2023-10-09T11:40:47;23.30;1.00
15937;DHT22;9163;48.818;8.976;2023-10-09T11:43:49;23.00;1.00
15937;DHT22;9163;48.818;8.976;2023-10-09T11:46:20;23.00;1.00
15937;DHT22;9163;48.818;8.976;2023-10-09T11:49:14;22.80;1.00
15937;DHT22;9163;48.818;8.976;2023-10-09T11:52:07;22.90;1.00
15937;DHT22;9163;48.818;8.976;2023-10-09T11:54:52;22.80;1.00
15937;DHT22;9163;48.818;8.976;2023-10-09T11:57:24;22.70;1.00
15937;DHT22;9163;48.818;8.976;2023-10-09T11:59:56;22.60;1.00
15937;DHT22;9163;48.818;8.976;2023-10-09T12:02:24;22.70;1.00
15937;DHT22;9163;48.818;8.976;2023-10-09T12:04:52;22.60;1.00
15937;DHT22;9163;48.818;8.976;2023-10-09T12:07:23;22.50;99.90
15937;DHT22;9163;48.818;8.976;2023-10-09T12:09:52;22.50;99.90
15937;DHT22;9163;48.818;8.976;2023-10-09T12:12:22;22.60;99.90
15937;DHT22;9163;48.818;8.976;2023-10-09T12:14:52;22.60;99.90
15937;DHT22;9163;48.818;8.976;2023-10-09T12:17:20;22.70;99.90
15937;DHT22;9163;48.818;8.976;2023-10-09T12:19:50;22.90;99.90
15937;DHT22;9163;48.818;8.976;2023-10-09T12:22:18;23.10;99.90
15937;DHT22;9163;48.818;8.976;2023-10-09T12:24:47;23.40;99.90
15937;DHT22;9163;48.818;8.976;2023-10-09T12:27:16;24.10;99.90
15937;DHT22;9163;48.818;8.976;2023-10-09T12:29:46;25.10;99.90
15937;DHT22;9163;48.818;8.976;2023-10-09T12:32:13;25.80;1.00
15937;DHT22;9163;48.818;8.976;2023-10-09T12:34:45;26.40;1.00
15937;DHT22;9163;48.818;8.976;2023-10-09T12:37:16;26.10;1.00
15937;DHT22;9163;48.818;8.976;2023-10-09T12:39:46;26.00;1.00
15937;DHT22;9163;48.818;8.976;2023-10-09T12:42:13;26.40;99.90
15937;DHT22;9163;48.818;8.976;2023-10-09T12:44:44;26.50;1.00
15937;DHT22;9163;48.818;8.976;2023-10-09T12:47:11;26.40;99.90
15937;DHT22;9163;48.818;8.976;2023-10-09T12:49:38;26.40;1.00
15937;DHT22;9163;48.818;8.976;2023-10-09T12:52:07;26.40;99.90
15937;DHT22;9163;48.818;8.976;2023-10-09T12:54:42;26.30;99.90
15937;DHT22;9163;48.818;8.976;2023-10-09T12:57:12;26.20;99.90
15937;DHT22;9163;48.818;8.976;2023-10-09T12:59:41;25.90;99.90
15937;DHT22;9163;48.818;8.976;2023-10-09T13:02:13;25.70;99.90
15937;DHT22;9163;48.818;8.976;2023-10-09T13:04:54;25.80;99.90
15937;DHT22;9163;48.818;8.976;2023-10-09T13:07:21;26.70;99.90
15937;DHT22;9163;48.818;8.976;2023-10-09T13:09:49;28.40;1.00
15937;DHT22;9163;48.818;8.976;2023-10-09T13:12:34;28.50;99.90
15937;DHT22;9163;48.818;8.976;2023-10-09T13:15:05;30.30;1.00
15937;DHT22;9163;48.818;8.976;2023-10-09T13:17:36;31.40;1.00
15937;DHT22;9163;48.818;8.976;2023-10-09T13:20:05;32.30;1.00
15937;DHT22;9163;48.818;8.976;2023-10-09T13:22:38;32.10;1.00
15937;DHT22;9163;48.818;8.976;2023-10-09T13:25:07;33.10;99.90
15937;DHT22;9163;48.818;8.976;2023-10-09T13:27:41;32.50;1.00
15937;DHT22;9163;48.818;8.976;2023-10-09T13:30:12;32.30;99.90
15937;DHT22;9163;48.818;8.976;2023-10-09T13:32:49;31.60;1.00
15937;DHT22;9163;48.818;8.976;2023-10-09T13:35:17;31.50;1.00
15937;DHT22;9163;48.818;8.976;2023-10-09T13:37:45;31.40;81.80
15937;DHT22;9163;48.818;8.976;2023-10-09T13:40:21;33.00;1.00
15937;DHT22;9163;48.818;8.976;2023-10-09T13:42:54;35.10;99.90
15937;DHT22;9163;48.818;8.976;2023-10-09T13:45:27;36.70;1.00
15937;DHT22;9163;48.818;8.976;2023-10-09T13:47:57;36.00;99.90
15937;DHT22;9163;48.818;8.976;2023-10-09T13:50:25;34.20;99.90
15937;DHT22;9163;48.818;8.976;2023-10-09T13:52:57;33.70;99.90
15937;DHT22;9163;48.818;8.976;2023-10-09T13:55:25;34.20;99.90
15937;DHT22;9163;48.818;8.976;2023-10-09T13:57:57;33.20;99.90
15937;DHT22;9163;48.818;8.976;2023-10-09T14:00:25;33.20;99.90
15937;DHT22;9163;48.818;8.976;2023-10-09T14:03:09;32.90;99.90
15937;DHT22;9163;48.818;8.976;2023-10-09T14:05:39;32.10;99.90
15937;DHT22;9163;48.818;8.976;2023-10-09T14:08:19;32.50;99.90
15937;DHT22;9163;48.818;8.976;2023-10-09T14:10:48;31.70;99.90
15937;DHT22;9163;48.818;8.976;2023-10-09T14:13:16;31.40;99.90
15937;DHT22;9163;48.818;8.976;2023-10-09T14:15:52;29.80;30.70
15937;DHT22;9163;48.818;8.976;2023-10-09T14:18:22;29.40;99.90
15937;DHT22;9163;48.818;8.976;2023-10-09T14:20:49;29.40;99.90
15937;DHT22;9163;48.818;8.976;2023-10-09T14:23:21;28.90;40.40
15937;DHT22;9163;48.818;8.976;2023-10-09T14:25:50;29.10;1.00
15937;DHT22;9163;48.818;8.976;2023-10-09T14:28:22;29.40;99.90
15937;DHT22;9163;48.818;8.976;2023-10-09T14:30:54;28.50;99.90
15937;DHT22;9163;48.818;8.976;2023-10-09T14:33:26;28.10;1.00
15937;DHT22;9163;48.818;8.976;2023-10-09T14:36:01;27.70;1.00
15937;DHT22;9163;48.818;8.976;2023-10-09T14:38:28;27.10;1.00
15937;DHT22;9163;48.818;8.976;2023-10-09T14:40:58;26.60;1.00
15937;DHT22;9163;48.818;8.976;2023-10-09T14:43:26;26.70;99.90
15937;DHT22;9163;48.818;8.976;2023-10-09T14:45:55;26.30;99.90
15937;DHT22;9163;48.818;8.976;2023-10-09T14:48:23;26.10;99.90
15937;DHT22;9163;48.818;8.976;2023-10-09T14:50:54;25.90;99.90
15937;DHT22;9163;48.818;8.976;2023-10-09T14:53:30;25.90;99.90
15937;DHT22;9163;48.818;8.976;2023-10-09T14:56:00;25.80;99.90
15937;DHT22;9163;48.818;8.976;2023-10-09T14:58:29;25.60;99.90
15937;DHT22;9163;48.818;8.976;2023-10-09T15:01:07;26.00;99.90
15937;DHT22;9163;48.818;8.976;2023-10-09T15:03:37;26.20;74.70
15937;DHT22;9163;48.818;8.976;2023-10-09T15:06:05;26.30;5.90
15937;DHT22;9163;48.818;8.976;2023-10-09T15:08:36;26.70;99.90
15937;DHT22;9163;48.818;8.976;2023-10-09T15:11:04;27.10;1.00
15937;DHT22;9163;48.818;8.976;2023-10-09T15:13:32;27.30;99.90
15937;DHT22;9163;48.818;8.976;2023-10-09T15:15:59;27.20;99.90
15937;DHT22;9163;48.818;8.976;2023-10-09T15:18:28;26.80;99.90
15937;DHT22;9163;48.818;8.976;2023-10-09T15:20:59;26.50;99.90
15937;DHT22;9163;48.818;8.976;2023-10-09T15:23:27;25.90;99.90
15937;DHT22;9163;48.818;8.976;2023-10-09T15:25:55;25.70;99.90
15937;DHT22;9163;48.818;8.976;2023-10-09T15:28:23;25.60;99.90
15937;DHT22;9163;48.818;8.976;2023-10-09T15:30:54;25.50;99.90
15937;DHT22;9163;48.818;8.976;2023-10-09T15:33:21;25.30;1.00
15937;DHT22;9163;48.818;8.976;2023-10-09T15:35:48;25.10;99.90
15937;DHT22;9163;48.818;8.976;2023-10-09T15:38:16;24.90;1.00
15937;DHT22;9163;48.818;8.976;2023-10-09T15:40:47;24.70;1.00
15937;DHT22;9163;48.818;8.976;2023-10-09T15:43:14;24.60;86.40
15937;DHT22;9163;48.818;8.976;2023-10-09T15:45:43;24.50;1.60
15937;DHT22;9163;48.818;8.976;2023-10-09T15:48:14;24.50;1.00
15937;DHT22;9163;48.818;8.976;2023-10-09T15:50:45;24.30;1.00
15937;DHT22;9163;48.818;8.976;2023-10-09T15:53:14;24.20;1.00
15937;DHT22;9163;48.818;8.976;2023-10-09T15:55:44;23.90;1.00
15937;DHT22;9163;48.818;8.976;2023-10-09T15:58:12;23.70;1.00
15937;DHT22;9163;48.818;8.976;2023-10-09T16:00:43;23.60;1.00
15937;DHT22;9163;48.818;8.976;2023-10-09T16:03:11;23.60;1.00
15937;DHT22;9163;48.818;8.976;2023-10-09T16:05:39;23.50;1.00
15937;DHT22;9163;48.818;8.976;2023-10-09T16:08:07;23.40;1.00
15937;DHT22;9163;48.818;8.976;2023-10-09T16:10:35;23.40;1.00
15937;DHT22;9163;48.818;8.976;2023-10-09T16:13:02;23.30;1.00
15937;DHT22;9163;48.818;8.976;2023-10-09T16:15:31;23.10;1.00
15937;DHT22;9163;48.818;8.976;2023-10-09T16:17:59;22.90;1.00
15937;DHT22;9163;48.818;8.976;2023-10-09T16:20:29;22.70;1.00
15937;DHT22;9163;48.818;8.976;2023-10-09T16:22:58;22.60;99.90
15937;DHT22;9163;48.818;8.976;2023-10-09T16:25:30;22.50;99.90
15937;DHT22;9163;48.818;8.976;2023-10-09T16:28:01;22.30;99.90
15937;DHT22;9163;48.818;8.976;2023-10-09T16:30:30;22.20;99.90
15937;DHT22;9163;48.818;8.976;2023-10-09T16:32:57;22.10;1.00
15937;DHT22;9163;48.818;8.976;2023-10-09T16:35:26;22.00;99.90
15937;DHT22;9163;48.818;8.976;2023-10-09T16:37:53;21.90;1.00
15937;DHT22;9163;48.818;8.976;2023-10-09T16:40:20;21.80;99.90
15937;DHT22;9163;48.818;8.976;2023-10-09T16:42:49;21.70;99.90
15937;DHT22;9163;48.818;8.976;2023-10-09T16:45:19;21.70;99.90
15937;DHT22;9163;48.818;8.976;2023-10-09T16:47:48;21.60;99.90